Campanya meteocatpedra

Dades EMA Os de Balaguer - el Monestir d'Avellanes

?
?
Resum diari 22:00 TU
Dades diàries de l'estació meteorològica
Temperatura mitjana 22.7 °C
Temperatura màxima 30.2 °C 14:46 TU
Temperatura mínima 13.8 °C 1:05 TU
Humitat relativa mitjana 45%
Precipitació acumulada 0.0 mm
Ratxa màxima del vent (6 m) 22.7 km/h - 197º 13:11 TU
Irradiació solar global 32.2 MJ/m2

El tram horari està expressat en Temps Universal (TU). Cal sumar una hora en horari d'hivern i dues en horari d'estiu per passar a l'hora oficial.

Os de Balaguer - el Monestir d'Avellanes

Metadades estació meteorol´gica
Municipi Os de Balaguer
Comarca Noguera
Altitud 576 m
Data alta 07.07.1995
Estat actual Operativa
Dades de període
Període
TU
TM
°C
TX
°C
TN
°C
HRM
%
PPT
mm
VVM (6 m)
km/h
DVM (6 m)
graus
VVX (6 m)
km/h
RS
W/m2
00:00 - 00:30 14.1 14.3 13.9 73 0.0 0.7 23 5.0 0
00:30 - 01:00 14.0 14.1 13.9 73 0.0 0.7 31 4.3 0
01:00 - 01:30 14.4 15.1 13.8 71 0.0 2.5 10 6.8 0
01:30 - 02:00 15.6 15.9 15.2 64 0.0 2.5 76 6.8 0
02:00 - 02:30 15.2 16.0 14.3 67 0.0 0.4 254 2.9 0
02:30 - 03:00 14.7 15.1 14.3 69 0.0 1.4 346 4.7 0
03:00 - 03:30 14.8 15.2 14.4 69 0.0 3.2 18 5.8 0
03:30 - 04:00 15.0 15.2 14.8 68 0.0 2.2 17 7.6 0
04:00 - 04:30 15.0 15.1 14.8 68 0.0 3.6 26 6.1 1
04:30 - 05:00 15.0 15.2 14.8 68 0.0 1.8 48 6.5 26
05:00 - 05:30 15.2 15.8 14.9 69 0.0 1.4 66 5.4 104
05:30 - 06:00 16.7 17.9 15.8 66 0.0 3.2 45 6.5 198
06:00 - 06:30 18.7 19.7 18.0 61 0.0 5.8 55 16.6 299
06:30 - 07:00 20.7 21.6 19.8 55 0.0 5.8 58 12.6 398
07:00 - 07:30 22.4 23.5 21.7 49 0.0 4.7 72 10.1 499
07:30 - 08:00 23.9 24.9 23.4 43 0.0 3.6 68 10.4 594
08:00 - 08:30 25.3 25.8 24.8 37 0.0 2.9 196 10.8 682
08:30 - 09:00 25.4 25.6 25.2 39 0.0 5.4 225 13.7 761
09:00 - 09:30 25.8 26.2 25.5 37 0.0 5.0 229 13.0 831
09:30 - 10:00 26.6 27.0 26.2 33 0.0 5.4 245 14.4 887
10:00 - 10:30 26.9 27.3 26.6 31 0.0 5.4 244 13.7 941
10:30 - 11:00 27.6 27.8 27.3 33 0.0 5.8 246 16.2 961
11:00 - 11:30 28.0 28.2 27.6 31 0.0 6.1 256 18.7 985
11:30 - 12:00 28.3 28.6 27.9 31 0.0 6.5 249 20.5 996
12:00 - 12:30 28.4 28.9 27.8 30 0.0 6.8 250 18.0 991
12:30 - 13:00 29.0 29.5 28.7 30 0.0 6.5 246 18.0 979
13:00 - 13:30 29.0 29.5 28.7 30 0.0 6.5 238 22.7 952
13:30 - 14:00 29.4 29.6 29.0 29 0.0 7.2 267 19.4 915
14:00 - 14:30 29.5 29.7 29.3 29 0.0 7.6 256 19.4 864
14:30 - 15:00 29.7 30.2 29.0 28 0.0 6.1 250 19.4 802
15:00 - 15:30 29.4 29.8 29.1 28 0.0 4.7 222 13.7 728
15:30 - 16:00 29.8 30.1 29.4 27 0.0 4.7 213 15.5 644
16:00 - 16:30 29.6 29.8 29.4 27 0.0 4.7 242 13.7 554
16:30 - 17:00 29.6 29.8 29.3 27 0.0 4.3 230 14.0 457
17:00 - 17:30 29.2 29.5 28.9 27 0.0 4.0 227 10.8 356
17:30 - 18:00 28.8 29.0 28.5 28 0.0 3.6 256 11.5 254
18:00 - 18:30 27.6 28.9 26.1 29 0.0 4.0 240 14.0 153
18:30 - 19:00 25.1 26.1 24.0 33 0.0 2.2 244 9.4 58
19:00 - 19:30 22.5 24.0 21.1 42 0.0 0.7 248 4.0 7
19:30 - 20:00 20.5 21.1 19.8 45 0.0 0.4 231 4.7 0
20:00 - 20:30 19.4 19.7 19.1 47 0.0 0.4 277 3.2 0
20:30 - 21:00 19.0 19.5 18.5 47 0.0 1.1 252 4.0 0
21:00 - 21:30 18.4 18.5 18.2 48 0.0 0.7 358 3.2 0
21:30 - 22:00 18.6 18.8 18.4 47 0.0 2.2 59 4.0 0
22:00 - 22:30 18.4 19.0 17.8 48 0.0 1.4 70 2.9 0
22:30 - 23:00 (s/d) (s/d) (s/d) (s/d) (s/d) (s/d) (s/d) (s/d) (s/d)

Les dades en taronja només han passat un control de qualitat automàtic. Resta pendent la seva validació definitiva.